Time;durP1;ratioP1;P1;durP2;ratioP2;P2;SDS_P1;SDS_P2;PMS_P1;PMS_P2;Temp;Humidity;BMP_temperature;BMP_pressure;BME280_temperature;BME280_humidity;BME280_pressure;Samples;Min_cycle;Max_cycle;Signal;HPM_P1;HPM_P2
2021/11/11 00:00:13;;;;;;;6.90;5.83;;;0.00;96.30;;;;;;4954200;29;20418;-74
2021/11/11 00:02:40;;;;;;;10.47;6.43;;;0.00;96.30;;;;;;4935282;29;20483;-75
2021/11/11 00:05:07;;;;;;;10.03;5.63;;;0.10;96.30;;;;;;4954094;29;20506;-74
2021/11/11 00:07:33;;;;;;;8.43;6.13;;;0.10;96.30;;;;;;4936803;29;21227;-74
2021/11/11 00:09:59;;;;;;;12.27;7.63;;;0.30;96.30;;;;;;4954151;29;20513;-74
2021/11/11 00:12:31;;;;;;;8.53;6.37;;;0.50;96.30;;;;;;4936263;29;20209;-74
2021/11/11 00:14:57;;;;;;;10.00;6.23;;;0.60;96.30;;;;;;4936735;29;20494;-74
2021/11/11 00:17:23;;;;;;;10.70;6.53;;;0.50;96.30;;;;;;4953944;29;20915;-74
2021/11/11 00:19:48;;;;;;;7.80;6.17;;;0.60;96.30;;;;;;4953879;29;20426;-74
2021/11/11 00:22:14;;;;;;;11.40;7.47;;;0.80;96.30;;;;;;4936064;29;20631;-74
2021/11/11 00:24:39;;;;;;;8.50;6.53;;;1.00;96.30;;;;;;4953444;29;20217;-74
2021/11/11 00:27:05;;;;;;;13.33;8.63;;;1.10;96.30;;;;;;4953827;29;20175;-74
2021/11/11 00:29:31;;;;;;;13.70;8.10;;;1.10;96.30;;;;;;4953811;29;20186;-74
2021/11/11 00:31:56;;;;;;;12.00;7.50;;;1.00;96.30;;;;;;4953104;28;20198;-74
2021/11/11 00:34:22;;;;;;;12.07;8.27;;;0.80;96.30;;;;;;4954479;29;20204;-75
2021/11/11 00:36:47;;;;;;;10.70;7.97;;;0.80;96.30;;;;;;4937599;29;20183;-75
2021/11/11 00:39:13;;;;;;;13.67;8.77;;;0.90;96.30;;;;;;4953824;29;20179;-74
2021/11/11 00:41:38;;;;;;;17.00;10.17;;;0.90;96.30;;;;;;4953074;28;20214;-75
2021/11/11 00:44:04;;;;;;;17.47;12.07;;;1.10;96.30;;;;;;4953663;29;20199;-74
2021/11/11 00:46:30;;;;;;;20.37;12.63;;;1.40;96.30;;;;;;4953675;29;20171;-75
2021/11/11 00:48:55;;;;;;;24.37;12.83;;;1.80;96.30;;;;;;4953631;29;20790;-75
2021/11/11 00:51:21;;;;;;;20.53;12.20;;;1.80;96.30;;;;;;4953082;28;20222;-75
2021/11/11 00:53:46;;;;;;;16.90;10.80;;;1.80;96.30;;;;;;4936424;29;20550;-75
2021/11/11 00:56:12;;;;;;;14.23;10.97;;;1.80;96.30;;;;;;4953618;29;20270;-75
2021/11/11 00:58:37;;;;;;;16.37;12.10;;;1.70;96.30;;;;;;4953558;29;20179;-75
2021/11/11 05:04:25;;;;;;;23.00;16.00;;;1.80;96.30;;;;;;5015637;28;20490;-75
2021/11/11 05:06:52;;;;;;;22.90;16.10;;;1.80;96.30;;;;;;5015382;28;20428;-74
2021/11/11 05:09:17;;;;;;;28.80;20.47;;;1.80;96.30;;;;;;5015227;28;20165;-74
2021/11/11 05:11:43;;;;;;;23.37;15.17;;;1.80;96.30;;;;;;5014765;28;20945;-75
2021/11/11 05:14:08;;;;;;;24.83;15.47;;;1.80;96.30;;;;;;5015242;28;20169;-75
2021/11/11 05:16:34;;;;;;;23.10;16.00;;;1.70;96.30;;;;;;5015997;28;20176;-76
2021/11/11 05:18:59;;;;;;;24.23;16.40;;;1.70;96.30;;;;;;5015320;28;20172;-76
2021/11/11 05:24:00;;;;;;;25.90;17.47;;;1.70;96.30;;;;;;5403581;23;20244;-75
2021/11/11 05:26:26;;;;;;;25.00;17.30;;;1.70;96.30;;;;;;5014602;28;20803;-74
2021/11/11 05:28:52;;;;;;;25.60;18.20;;;1.70;96.30;;;;;;5015095;28;20169;-74
2021/11/11 05:31:17;;;;;;;25.07;17.00;;;1.70;96.30;;;;;;5014559;28;20189;-75
2021/11/11 05:33:43;;;;;;;24.70;15.50;;;1.60;96.30;;;;;;5013532;28;20184;-74
2021/11/11 05:36:09;;;;;;;23.60;17.40;;;1.60;96.30;;;;;;5013466;28;20173;-75
2021/11/11 05:38:35;;;;;;;22.60;14.40;;;1.60;96.30;;;;;;5013447;28;20416;-75
2021/11/11 05:41:00;;;;;;;20.73;15.13;;;1.70;96.30;;;;;;5013822;28;20228;-75
2021/11/11 05:43:26;;;;;;;22.80;14.50;;;1.70;96.30;;;;;;4995716;28;20197;-74
2021/11/11 05:45:52;;;;;;;17.50;13.57;;;1.80;96.30;;;;;;4995127;28;20248;-75
2021/11/11 05:48:18;;;;;;;21.00;15.80;;;1.90;96.30;;;;;;4995081;28;20174;-75
2021/11/11 05:50:43;;;;;;;23.43;16.00;;;1.90;96.30;;;;;;4994044;28;20559;-75
2021/11/11 05:53:09;;;;;;;23.07;16.70;;;1.90;96.30;;;;;;4994485;28;20327;-75
2021/11/11 05:55:34;;;;;;;21.10;15.10;;;1.90;96.30;;;;;;4993617;28;20197;-75
2021/11/11 05:58:00;;;;;;;23.33;15.50;;;1.80;96.30;;;;;;4993562;28;20595;-74
2021/11/11 06:00:25;;;;;;;24.57;15.93;;;1.90;96.30;;;;;;4993173;28;20193;-75
2021/11/11 06:02:51;;;;;;;21.10;16.07;;;1.90;96.30;;;;;;4994160;28;20730;-75
2021/11/11 06:05:18;;;;;;;20.87;14.27;;;1.90;96.30;;;;;;4994520;28;20644;-74
2021/11/11 06:07:44;;;;;;;21.33;14.53;;;1.90;96.30;;;;;;4994659;28;20174;-75
2021/11/11 06:10:11;;;;;;;23.20;15.33;;;1.90;96.30;;;;;;4994615;28;21128;-75
2021/11/11 06:12:37;;;;;;;22.80;13.10;;;1.80;96.30;;;;;;4993732;28;20433;-75
2021/11/11 06:15:03;;;;;;;30.60;20.53;;;1.80;96.30;;;;;;4994500;28;20910;-75
2021/11/11 06:17:29;;;;;;;24.10;17.30;;;1.80;96.30;;;;;;4994613;28;20440;-75
2021/11/11 06:19:55;;;;;;;26.90;16.77;;;1.80;96.30;;;;;;5007213;28;20894;-75
2021/11/11 06:22:21;;;;;;;26.10;15.47;;;1.80;96.30;;;;;;4994726;28;20197;-75
2021/11/11 06:24:47;;;;;;;21.20;14.83;;;1.80;96.30;;;;;;5021806;28;20443;-75
2021/11/11 06:27:12;;;;;;;26.03;15.23;;;1.70;96.30;;;;;;5012946;28;20183;-76
2021/11/11 06:29:38;;;;;;;26.90;16.17;;;1.80;96.30;;;;;;5012451;28;20272;-76
2021/11/11 06:32:04;;;;;;;25.80;14.90;;;1.80;96.30;;;;;;5011638;28;20207;-76
2021/11/11 06:34:30;;;;;;;25.87;15.30;;;1.80;96.30;;;;;;5009110;28;20223;-76
2021/11/11 06:36:56;;;;;;;23.97;16.63;;;1.80;96.30;;;;;;5000655;28;20420;-75
2021/11/11 06:39:22;;;;;;;21.10;15.57;;;1.90;96.30;;;;;;5010940;28;20259;-76
2021/11/11 06:41:47;;;;;;;25.83;15.63;;;2.00;96.30;;;;;;5012801;28;20197;-76
2021/11/11 06:44:19;;;;;;;33.77;15.90;;;2.10;96.30;;;;;;5012603;28;20620;-76
2021/11/11 06:46:45;;;;;;;22.47;15.90;;;2.20;96.30;;;;;;5012180;28;20225;-76
2021/11/11 06:49:11;;;;;;;18.43;14.47;;;2.20;96.30;;;;;;5010534;28;20432;-76
2021/11/11 06:51:37;;;;;;;23.87;16.20;;;2.10;96.30;;;;;;4991335;28;20441;-77
2021/11/11 06:54:02;;;;;;;23.73;17.50;;;2.20;96.30;;;;;;5012198;28;20165;-76
2021/11/11 06:56:28;;;;;;;22.60;15.30;;;2.20;96.30;;;;;;5011913;28;20176;-76
2021/11/11 06:58:53;;;;;;;22.40;15.10;;;2.20;96.30;;;;;;5013110;28;20179;-76
2021/11/11 07:01:21;;;;;;;23.60;16.27;;;2.20;96.30;;;;;;5012550;28;20197;-76
2021/11/11 07:03:48;;;;;;;21.53;15.60;;;2.30;96.30;;;;;;5011789;28;20212;-76
2021/11/11 07:06:13;;;;;;;28.57;17.43;;;2.40;96.30;;;;;;5011838;28;20408;-77
2021/11/11 07:08:39;;;;;;;25.23;17.10;;;2.50;96.30;;;;;;5013015;28;20466;-76
2021/11/11 07:11:04;;;;;;;28.67;17.53;;;2.50;96.30;;;;;;5000720;28;20219;-76
2021/11/11 07:13:30;;;;;;;24.23;17.20;;;2.50;96.30;;;;;;4993197;28;20174;-76
2021/11/11 07:15:56;;;;;;;21.90;15.90;;;2.50;96.30;;;;;;4992060;28;20644;-76
2021/11/11 07:18:21;;;;;;;24.93;16.50;;;2.60;96.30;;;;;;5010584;28;20184;-76
2021/11/11 07:20:49;;;;;;;27.60;17.10;;;2.70;96.30;;;;;;5012770;28;20527;-76
2021/11/11 07:23:17;;;;;;;23.00;16.57;;;2.70;96.30;;;;;;5012043;28;20212;-76
2021/11/11 07:25:44;;;;;;;25.57;16.20;;;2.70;96.30;;;;;;5011513;28;20898;-76
2021/11/11 07:28:09;;;;;;;26.93;15.67;;;2.70;96.30;;;;;;5021021;28;20756;-76
2021/11/11 07:30:35;;;;;;;26.30;17.80;;;2.80;96.30;;;;;;5032251;28;20411;-76
2021/11/11 07:33:01;;;;;;;28.03;17.00;;;2.90;96.30;;;;;;5031646;28;20569;-76
2021/11/11 07:35:27;;;;;;;23.30;16.43;;;2.90;96.30;;;;;;5032153;28;20422;-76
2021/11/11 07:37:53;;;;;;;25.67;16.47;;;3.00;96.30;;;;;;5030968;28;20184;-76
2021/11/11 07:40:23;;;;;;;25.97;17.00;;;3.10;96.30;;;;;;5032279;28;20179;-77
2021/11/11 07:42:49;;;;;;;26.90;17.60;;;3.20;96.30;;;;;;5031454;28;20817;-76
2021/11/11 07:45:18;;;;;;;23.83;16.40;;;3.20;96.30;;;;;;5030902;28;20926;-76
2021/11/11 07:47:43;;;;;;;24.80;16.73;;;3.20;96.30;;;;;;5031015;28;20173;-76
2021/11/11 07:50:10;;;;;;;25.70;17.20;;;3.30;96.30;;;;;;5032256;28;20411;-76
2021/11/11 07:52:36;;;;;;;25.67;17.17;;;3.40;96.30;;;;;;5030345;28;20204;-76
2021/11/11 07:55:03;;;;;;;24.23;17.43;;;3.40;96.30;;;;;;5032045;28;20415;-76
2021/11/11 07:57:31;;;;;;;22.83;15.20;;;3.50;96.30;;;;;;5032199;28;20438;-76
2021/11/11 07:59:57;;;;;;;23.07;15.67;;;3.50;96.30;;;;;;5030835;28;20476;-77
2021/11/11 08:02:23;;;;;;;22.87;15.73;;;3.50;96.30;;;;;;5008874;28;20459;-76
2021/11/11 08:04:50;;;;;;;25.27;17.07;;;3.50;96.30;;;;;;5012101;28;20422;-77
2021/11/11 08:07:18;;;;;;;22.83;14.43;;;3.60;96.30;;;;;;5026474;28;20959;-76
2021/11/11 08:09:47;;;;;;;22.43;16.57;;;3.70;96.30;;;;;;4998706;28;20413;-76
2021/11/11 08:12:13;;;;;;;21.73;14.60;;;3.80;96.30;;;;;;4997233;28;20436;-75
2021/11/11 08:14:39;;;;;;;23.50;16.97;;;3.80;96.30;;;;;;4991448;28;20432;-74
2021/11/11 08:17:05;;;;;;;26.17;15.53;;;3.80;96.30;;;;;;4992624;28;20780;-75
2021/11/11 08:19:31;;;;;;;30.53;18.10;;;4.00;96.30;;;;;;4992452;28;20177;-75
2021/11/11 08:21:56;;;;;;;26.17;16.97;;;4.10;96.30;;;;;;5007433;28;20212;-76
2021/11/11 08:24:22;;;;;;;22.57;16.83;;;4.10;96.30;;;;;;5031304;28;20188;-75
2021/11/11 08:26:47;;;;;;;24.63;16.90;;;4.20;96.30;;;;;;5016308;28;20768;-75
2021/11/11 08:29:13;;;;;;;25.17;16.17;;;4.30;96.30;;;;;;5013035;28;20174;-75
2021/11/11 08:31:38;;;;;;;26.00;17.40;;;4.30;96.30;;;;;;5007024;28;20205;-75
2021/11/11 08:34:04;;;;;;;28.50;17.80;;;4.40;96.30;;;;;;4996516;28;20197;-75
2021/11/11 08:36:30;;;;;;;24.43;16.83;;;4.40;96.30;;;;;;4996157;28;20228;-75
2021/11/11 08:38:59;;;;;;;28.10;18.53;;;4.40;96.30;;;;;;5012461;28;20184;-75
2021/11/11 08:41:26;;;;;;;27.23;16.13;;;4.50;96.30;;;;;;5035228;28;20192;-75
2021/11/11 08:43:53;;;;;;;26.37;15.70;;;4.60;96.30;;;;;;5035598;28;20450;-75
2021/11/11 08:46:18;;;;;;;28.60;18.87;;;4.60;96.30;;;;;;5034495;28;20474;-75
2021/11/11 08:48:44;;;;;;;34.27;21.03;;;4.60;96.30;;;;;;5035545;28;20827;-75
2021/11/11 08:51:09;;;;;;;35.47;21.50;;;4.70;96.30;;;;;;5035025;28;20691;-76
2021/11/11 08:53:35;;;;;;;27.50;16.60;;;4.80;96.30;;;;;;5034452;28;20187;-75
2021/11/11 08:56:00;;;;;;;27.23;17.60;;;4.90;96.30;;;;;;5034317;28;20398;-75
2021/11/11 08:58:30;;;;;;;31.90;19.80;;;5.00;96.30;;;;;;5035378;28;20215;-75
2021/11/11 09:00:59;;;;;;;28.17;19.07;;;5.20;96.30;;;;;;5035172;28;20694;-75
2021/11/11 09:03:25;;;;;;;26.07;16.17;;;5.20;96.30;;;;;;5035280;28;20524;-75
2021/11/11 09:05:51;;;;;;;25.07;17.57;;;5.30;96.30;;;;;;5035338;28;20410;-75
2021/11/11 09:08:17;;;;;;;26.27;18.50;;;5.30;96.30;;;;;;5031977;28;20169;-76
2021/11/11 09:10:44;;;;;;;29.87;19.90;;;5.40;96.30;;;;;;4997627;28;20491;-75
2021/11/11 09:13:10;;;;;;;32.53;20.93;;;5.40;96.30;;;;;;4994066;28;20280;-75
2021/11/11 09:15:36;;;;;;;35.90;19.50;;;5.50;96.30;;;;;;4995805;28;20911;-76
2021/11/11 09:18:04;;;;;;;33.53;19.70;;;5.60;96.30;;;;;;4995774;28;20178;-76
2021/11/11 09:20:32;;;;;;;29.93;19.00;;;5.60;96.30;;;;;;4994442;28;20181;-76
2021/11/11 09:22:59;;;;;;;33.60;18.23;;;5.70;96.30;;;;;;4995015;28;20464;-75
2021/11/11 09:25:27;;;;;;;32.20;19.70;;;5.80;96.30;;;;;;4995684;28;20396;-75
2021/11/11 09:27:54;;;;;;;32.30;19.70;;;5.90;96.30;;;;;;4995606;28;20475;-76
2021/11/11 09:30:24;;;;;;;31.40;19.30;;;5.90;96.30;;;;;;4995615;28;20424;-75
2021/11/11 09:32:51;;;;;;;28.57;17.93;;;6.10;96.30;;;;;;5000010;28;20493;-75
2021/11/11 09:35:17;;;;;;;28.27;17.73;;;6.20;96.30;;;;;;4995149;28;20920;-75
2021/11/11 09:37:43;;;;;;;29.87;19.00;;;6.30;96.30;;;;;;4995453;28;20495;-76
2021/11/11 09:40:12;;;;;;;28.50;18.50;;;6.40;96.30;;;;;;4994199;28;20472;-75
2021/11/11 09:42:39;;;;;;;30.87;18.20;;;6.40;96.30;;;;;;5004704;28;20207;-75
2021/11/11 09:45:06;;;;;;;29.97;18.80;;;6.50;96.30;;;;;;5029744;28;20423;-75
2021/11/11 09:47:32;;;;;;;28.13;17.93;;;6.60;96.30;;;;;;5014899;28;20501;-75
2021/11/11 09:49:57;;;;;;;32.23;18.13;;;6.70;96.30;;;;;;5014803;28;20863;-75
2021/11/11 09:52:25;;;;;;;27.97;17.93;;;6.70;96.30;;;;;;5014005;28;20197;-75
2021/11/11 10:00:19;;;;;;;23.77;16.63;;;7.10;96.30;;;;;;4994978;28;20804;-75
2021/11/11 10:02:45;;;;;;;26.57;17.80;;;7.40;96.30;;;;;;4994198;28;20484;-76
2021/11/11 10:05:10;;;;;;;28.03;17.83;;;7.60;96.30;;;;;;5000503;28;20197;-76
2021/11/11 10:07:36;;;;;;;25.80;16.97;;;8.10;96.30;;;;;;4994835;28;20417;-76
2021/11/11 10:10:03;;;;;;;25.10;16.17;;;9.00;96.30;;;;;;4994687;28;20174;-77
2021/11/11 10:12:29;;;;;;;21.93;16.10;;;10.20;96.30;;;;;;4994246;28;20197;-77
2021/11/11 10:15:10;;;;;;;21.70;15.30;;;11.00;96.30;;;;;;4994537;28;20536;-76
2021/11/11 10:17:43;;;;;;;23.27;15.47;;;11.20;96.30;;;;;;4994368;28;20208;-77
2021/11/11 10:20:10;;;;;;;20.63;16.50;;;12.00;96.30;;;;;;4994644;28;20517;-76
2021/11/11 10:22:39;;;;;;;21.77;14.07;;;12.60;96.30;;;;;;4993821;28;20463;-77
2021/11/11 10:25:10;;;;;;;24.30;15.20;;;13.20;96.30;;;;;;4994464;28;20765;-76
2021/11/11 10:27:43;;;;;;;22.63;14.77;;;13.30;96.30;;;;;;5002025;28;20419;-75
2021/11/11 10:30:25;;;;;;;24.17;14.93;;;13.20;96.30;;;;;;5033784;28;20443;-75
2021/11/11 10:33:09;;;;;;;20.40;13.30;;;13.00;96.30;;;;;;5033515;28;20461;-75
2021/11/11 10:35:38;;;;;;;22.13;16.27;;;13.20;96.30;;;;;;5033717;28;20415;-76
2021/11/11 10:38:09;;;;;;;24.60;14.60;;;13.10;96.30;;;;;;5033733;28;20480;-75
2021/11/11 10:40:44;;;;;;;19.40;15.20;;;13.80;96.30;;;;;;5033440;28;20930;-76
2021/11/11 10:43:22;;;;;;;20.33;15.83;;;13.50;96.30;;;;;;5032970;28;20465;-75
2021/11/11 10:45:49;;;;;;;16.73;14.20;;;13.80;96.30;;;;;;5033345;28;20414;-75
2021/11/11 10:48:17;;;;;;;18.57;14.20;;;13.30;96.30;;;;;;5025032;28;20816;-76
2021/11/11 10:50:46;;;;;;;23.80;13.77;;;13.10;96.30;;;;;;5010371;28;20442;-75
2021/11/11 10:53:13;;;;;;;18.73;13.40;;;13.40;96.30;;;;;;5012847;28;20781;-75
2021/11/11 10:55:41;;;;;;;20.90;13.87;;;13.40;96.30;;;;;;5013272;28;20412;-75
2021/11/11 10:58:19;;;;;;;20.93;12.80;;;13.20;96.30;;;;;;5013250;28;20446;-75
2021/11/11 11:00:48;;;;;;;18.93;13.37;;;13.00;96.30;;;;;;5008906;28;20447;-75
2021/11/11 11:03:23;;;;;;;17.87;13.67;;;12.80;96.30;;;;;;5000501;28;20538;-75
2021/11/11 11:05:59;;;;;;;17.83;14.00;;;12.60;96.30;;;;;;5002318;28;20416;-74
2021/11/11 11:08:29;;;;;;;20.70;14.07;;;12.50;96.30;;;;;;5012645;28;20503;-74
2021/11/11 11:11:19;;;;;;;17.10;13.33;;;12.20;96.30;;;;;;5004762;28;20440;-74
2021/11/11 11:13:51;;;;;;;18.87;12.87;;;12.20;96.30;;;;;;5012830;28;20426;-74
2021/11/11 11:16:20;;;;;;;17.27;12.37;;;12.10;96.30;;;;;;5013263;28;20415;-73
2021/11/11 11:18:46;;;;;;;17.07;12.60;;;11.90;96.30;;;;;;5008503;28;20432;-75
2021/11/11 11:21:18;;;;;;;14.43;11.40;;;11.70;96.30;;;;;;5000495;28;20445;-74
2021/11/11 11:23:50;;;;;;;14.73;11.40;;;11.60;96.30;;;;;;4992870;28;20280;-74
2021/11/11 11:26:19;;;;;;;12.23;9.33;;;11.70;96.30;;;;;;4992700;28;20405;-74
2021/11/11 11:29:01;;;;;;;12.37;9.20;;;11.80;96.30;;;;;;5018977;28;20793;-74
2021/11/11 11:31:42;;;;;;;13.53;9.70;;;11.80;96.30;;;;;;5031314;28;20427;-74
2021/11/11 11:34:11;;;;;;;14.77;10.47;;;11.80;96.30;;;;;;5030983;28;20446;-74
2021/11/11 11:36:56;;;;;;;13.07;9.87;;;11.50;96.30;;;;;;5031767;28;20411;-74
2021/11/11 11:39:53;;;;;;;16.73;8.97;;;11.50;96.30;;;;;;5032064;28;20387;-74
2021/11/11 11:42:30;;;;;;;14.37;8.50;;;11.80;96.30;;;;;;4994888;28;20468;-74
2021/11/11 11:45:00;;;;;;;13.23;8.73;;;11.70;96.30;;;;;;4992977;28;20499;-74
2021/11/11 11:47:43;;;;;;;11.70;8.93;;;11.90;96.30;;;;;;4991781;28;20460;-74
2021/11/11 11:50:26;;;;;;;14.90;10.00;;;12.10;96.30;;;;;;4993050;28;20446;-74
2021/11/11 11:53:04;;;;;;;9.80;8.80;;;12.10;96.30;;;;;;4992325;28;20397;-74
2021/11/11 11:55:40;;;;;;;14.10;9.37;;;12.10;96.30;;;;;;4992699;28;20401;-74
2021/11/11 12:08:47;;;;;;;11.70;9.00;;;12.00;96.30;;;;;;4992969;28;20450;-74
2021/11/11 12:11:40;;;;;;;15.17;10.00;;;12.00;96.30;;;;;;4992380;28;20779;-74
2021/11/11 12:40:03;;;;;;;16.07;9.80;;;11.40;96.30;;;;;;5031681;28;20414;-74
2021/11/11 12:42:34;;;;;;;14.33;10.00;;;11.40;96.30;;;;;;5031096;28;20451;-74
2021/11/11 12:45:05;;;;;;;16.70;9.60;;;11.20;96.30;;;;;;5031792;28;20404;-74
2021/11/11 12:47:32;;;;;;;19.50;9.40;;;11.20;96.30;;;;;;5031809;28;20392;-74
2021/11/11 12:50:32;;;;;;;18.10;9.63;;;11.10;96.30;;;;;;5031702;28;20403;-74
2021/11/11 12:53:19;;;;;;;10.40;8.70;;;10.90;96.30;;;;;;5031148;28;20549;-74
2021/11/11 12:56:10;;;;;;;12.57;9.30;;;10.90;96.30;;;;;;5031702;28;20922;-75
2021/11/11 12:58:38;;;;;;;15.17;10.00;;;10.80;96.30;;;;;;5031652;28;20469;-74
2021/11/11 13:01:24;;;;;;;12.17;9.70;;;10.80;96.30;;;;;;5030962;28;20442;-74
2021/11/11 13:04:00;;;;;;;14.00;9.00;;;10.80;96.30;;;;;;5029866;28;20965;-74
2021/11/11 13:06:35;;;;;;;12.37;9.80;;;10.80;96.30;;;;;;5031560;28;20478;-74
2021/11/11 13:09:11;;;;;;;11.67;9.63;;;10.80;96.30;;;;;;4992211;28;20826;-75
2021/11/11 13:11:44;;;;;;;16.13;9.67;;;10.80;96.30;;;;;;4995153;28;20439;-73
2021/11/11 13:14:17;;;;;;;11.77;9.50;;;10.80;96.30;;;;;;4995847;28;20441;-74
2021/11/11 13:17:04;;;;;;;12.90;10.70;;;10.70;96.30;;;;;;4995833;28;20405;-74
2021/11/11 13:19:37;;;;;;;12.53;8.90;;;10.70;96.30;;;;;;4988385;28;20556;-73
2021/11/11 13:22:08;;;;;;;14.03;9.90;;;10.80;96.30;;;;;;4995033;28;20470;-74
2021/11/11 13:54:54;;;;;;;13.07;9.93;;;10.50;96.30;;;;;;4995094;28;20948;-74
2021/11/11 14:27:45;;;;;;;12.20;10.30;;;10.30;96.30;;;;;;4995044;28;20478;-73
2021/11/11 15:16:23;;;;;;;18.20;10.93;;;5.70;96.30;;;;;;4993943;28;20463;-73
2021/11/11 16:02:59;;;;;;;19.40;13.33;;;3.70;96.30;;;;;;4993559;28;20255;-73
2021/11/11 16:27:21;;;;;;;18.40;13.70;;;3.60;96.30;;;;;;4992970;28;20443;-72
2021/11/11 16:29:47;;;;;;;22.77;13.53;;;3.50;96.30;;;;;;4992710;28;20440;-72
2021/11/11 16:32:13;;;;;;;18.67;13.50;;;3.50;96.30;;;;;;4990802;28;20194;-72
2021/11/11 16:34:39;;;;;;;24.57;16.40;;;3.50;96.30;;;;;;4992683;28;20413;-72
2021/11/11 16:37:07;;;;;;;23.80;15.90;;;3.50;96.30;;;;;;4992600;28;20416;-72
2021/11/11 16:39:33;;;;;;;21.97;15.63;;;3.60;96.30;;;;;;4992515;28;20181;-72
2021/11/11 16:41:59;;;;;;;22.17;14.73;;;3.60;96.30;;;;;;4991906;28;20425;-72
2021/11/11 16:44:25;;;;;;;22.80;15.53;;;3.50;96.30;;;;;;4992959;28;20424;-73
2021/11/11 16:46:52;;;;;;;28.37;19.70;;;3.40;96.30;;;;;;4996785;28;20178;-72
2021/11/11 16:49:18;;;;;;;24.67;19.30;;;3.40;96.30;;;;;;4994973;28;20417;-72
2021/11/11 16:51:45;;;;;;;29.10;18.37;;;3.30;96.30;;;;;;4994477;28;20440;-72
2021/11/11 16:54:11;;;;;;;24.83;17.13;;;3.30;96.30;;;;;;4996337;28;20174;-72
2021/11/11 16:56:36;;;;;;;26.03;17.53;;;3.20;96.30;;;;;;4996217;28;20420;-73
2021/11/11 16:59:04;;;;;;;23.67;15.93;;;3.10;96.30;;;;;;4995237;28;20409;-72
2021/11/11 17:01:29;;;;;;;28.93;18.23;;;2.90;96.30;;;;;;4993673;28;20197;-72
2021/11/11 17:03:55;;;;;;;25.10;17.77;;;2.80;96.30;;;;;;4995802;28;20452;-72
2021/11/11 17:06:21;;;;;;;26.17;18.67;;;2.80;96.30;;;;;;4995618;28;20660;-72
2021/11/11 17:08:48;;;;;;;31.67;21.63;;;2.80;96.30;;;;;;4995541;28;20169;-72
2021/11/11 17:11:16;;;;;;;33.27;22.63;;;2.70;96.30;;;;;;4994806;28;20939;-72
2021/11/11 17:13:43;;;;;;;35.63;22.60;;;2.60;96.30;;;;;;5004158;28;20434;-72
2021/11/11 17:16:11;;;;;;;38.90;21.70;;;2.50;96.30;;;;;;5015793;28;20412;-72
2021/11/11 17:18:37;;;;;;;30.10;21.90;;;2.50;96.30;;;;;;5013209;28;20427;-72
2021/11/11 17:28:42;;;;;;;39.77;22.40;;;2.30;96.30;;;;;;4998195;28;21002;-72
2021/11/11 17:31:07;;;;;;;36.80;20.67;;;2.20;96.30;;;;;;4989506;28;20429;-72
2021/11/11 17:33:37;;;;;;;37.93;21.80;;;2.20;96.30;;;;;;4972707;28;20700;-72
2021/11/11 17:36:05;;;;;;;34.13;21.10;;;2.20;96.30;;;;;;4975292;28;20732;-73
2021/11/11 17:38:33;;;;;;;33.77;21.77;;;2.20;96.30;;;;;;4975805;28;20393;-72
2021/11/11 17:41:01;;;;;;;29.23;20.60;;;2.00;96.30;;;;;;4973590;28;20433;-73
2021/11/11 17:43:30;;;;;;;36.77;22.57;;;1.90;96.30;;;;;;4975521;28;20499;-73
2021/11/11 17:46:13;;;;;;;36.03;22.20;;;1.90;96.30;;;;;;4975423;28;20528;-72
2021/11/11 17:48:43;;;;;;;36.00;23.00;;;1.80;96.30;;;;;;4975485;28;20957;-72
2021/11/11 17:51:34;;;;;;;39.93;20.93;;;1.70;96.30;;;;;;4974313;28;20517;-73
2021/11/11 17:54:06;;;;;;;31.90;19.90;;;1.60;96.30;;;;;;4974481;28;20549;-72
2021/11/11 17:56:33;;;;;;;35.43;20.67;;;1.60;96.30;;;;;;4975621;28;20405;-73
2021/11/11 17:58:58;;;;;;;29.47;20.67;;;1.50;96.30;;;;;;4975811;28;20802;-72
2021/11/11 18:01:28;;;;;;;32.97;18.87;;;1.40;96.30;;;;;;4975170;28;20444;-72
2021/11/11 18:03:55;;;;;;;32.10;20.23;;;1.30;96.30;;;;;;4975323;28;20194;-73
2021/11/11 18:06:29;;;;;;;35.17;20.90;;;1.30;96.30;;;;;;4975455;28;20807;-73
2021/11/11 18:08:57;;;;;;;36.60;21.93;;;1.10;96.30;;;;;;4956371;28;20856;-73
2021/11/11 18:11:27;;;;;;;32.00;20.33;;;1.00;96.30;;;;;;4972393;28;20458;-75
2021/11/11 18:14:01;;;;;;;33.90;19.80;;;1.10;96.30;;;;;;4986898;28;20996;-73
2021/11/11 18:16:30;;;;;;;28.77;19.40;;;1.10;96.30;;;;;;4981092;28;20414;-73
2021/11/11 18:18:57;;;;;;;30.33;18.70;;;1.00;96.30;;;;;;4973257;28;20414;-73
2021/11/11 18:21:24;;;;;;;35.47;21.70;;;1.10;96.30;;;;;;4961608;28;20763;-73
2021/11/11 18:23:51;;;;;;;36.50;23.10;;;1.10;96.30;;;;;;4973804;28;20448;-73
2021/11/11 18:26:17;;;;;;;33.43;22.17;;;1.00;96.30;;;;;;4975373;28;20787;-73
2021/11/11 18:28:55;;;;;;;35.30;22.30;;;1.00;96.30;;;;;;4961385;28;20881;-73
2021/11/11 18:31:26;;;;;;;41.50;24.37;;;0.90;96.30;;;;;;4974149;28;20925;-73
2021/11/11 18:34:07;;;;;;;35.00;25.33;;;0.90;96.30;;;;;;4975305;28;20492;-74
2021/11/11 18:36:35;;;;;;;36.17;23.30;;;0.90;96.30;;;;;;4962830;28;20499;-73
2021/11/11 18:39:04;;;;;;;30.13;19.83;;;0.80;96.30;;;;;;4954695;29;20473;-73
2021/11/11 18:41:30;;;;;;;41.37;21.23;;;0.90;96.30;;;;;;4966651;28;20492;-74
2021/11/11 18:43:56;;;;;;;37.13;20.70;;;0.90;96.30;;;;;;4973747;28;20506;-73
2021/11/11 18:46:22;;;;;;;40.83;24.70;;;0.80;96.30;;;;;;4974931;28;20206;-73
2021/11/11 18:48:48;;;;;;;36.00;21.60;;;0.80;96.30;;;;;;4973585;28;20418;-73
2021/11/11 18:51:27;;;;;;;31.37;21.30;;;0.70;96.30;;;;;;4972597;28;20808;-73
2021/11/11 18:53:54;;;;;;;40.97;23.90;;;0.70;96.30;;;;;;4974827;28;20484;-74
2021/11/11 18:56:20;;;;;;;30.03;21.30;;;0.70;96.30;;;;;;4974733;28;20509;-73
2021/11/11 18:58:46;;;;;;;32.37;22.27;;;0.60;96.30;;;;;;4973778;28;20501;-72
2021/11/11 19:01:15;;;;;;;33.40;20.77;;;0.60;96.30;;;;;;4972782;28;20528;-74
2021/11/11 19:03:42;;;;;;;37.80;20.90;;;0.60;96.30;;;;;;4974428;28;20667;-73
2021/11/11 19:06:20;;;;;;;33.63;19.77;;;0.60;96.30;;;;;;4974234;28;20411;-74
2021/11/11 19:08:52;;;;;;;32.97;19.07;;;0.60;96.30;;;;;;4973972;28;20553;-73
2021/11/11 19:11:25;;;;;;;47.00;28.20;;;0.60;96.30;;;;;;4975027;28;20443;-74
2021/11/11 19:13:53;;;;;;;35.73;20.27;;;0.60;96.30;;;;;;4988994;28;20413;-73
2021/11/11 19:16:27;;;;;;;30.50;17.90;;;0.70;96.30;;;;;;4992138;28;20468;-73
2021/11/11 19:18:57;;;;;;;31.70;16.53;;;0.70;96.30;;;;;;4993176;28;20416;-73
2021/11/11 19:21:23;;;;;;;31.53;18.83;;;0.70;96.30;;;;;;4992670;28;20502;-73
2021/11/11 19:23:52;;;;;;;27.63;17.80;;;0.70;96.30;;;;;;4992902;28;20484;-73
2021/11/11 19:26:18;;;;;;;27.07;18.40;;;0.60;96.30;;;;;;4991591;28;20440;-75
2021/11/11 19:28:44;;;;;;;26.97;16.70;;;0.60;96.30;;;;;;4983639;28;20413;-74
2021/11/11 19:31:11;;;;;;;28.30;16.27;;;0.60;96.30;;;;;;4974017;28;20809;-75
2021/11/11 19:33:38;;;;;;;26.07;17.07;;;0.60;96.30;;;;;;4971865;28;20185;-73
2021/11/11 19:36:15;;;;;;;22.50;15.80;;;0.50;96.30;;;;;;4973413;28;20924;-74
2021/11/11 19:38:57;;;;;;;33.10;20.57;;;0.40;96.30;;;;;;4973441;28;20541;-73
2021/11/11 19:44:09;;;;;;;30.40;17.30;;;0.40;96.30;;;;;;4973850;28;20449;-73
2021/11/11 19:46:59;;;;;;;24.13;15.33;;;0.40;96.30;;;;;;4973200;28;20401;-74
2021/11/11 19:52:32;;;;;;;29.60;17.27;;;0.40;96.30;;;;;;4973050;28;20457;-74
2021/11/11 19:55:11;;;;;;;27.10;16.43;;;0.30;96.30;;;;;;4973260;28;20398;-74
2021/11/11 20:03:43;;;;;;;23.80;14.30;;;0.20;96.30;;;;;;4951403;29;20498;-73
2021/11/11 20:06:20;;;;;;;23.90;14.50;;;0.10;96.30;;;;;;4970631;28;20456;-74
2021/11/11 20:11:24;;;;;;;23.93;14.90;;;-0.10;96.30;;;;;;4972808;28;20433;-73
2021/11/11 20:19:11;;;;;;;32.43;18.40;;;-0.10;96.30;;;;;;4972593;28;20904;-73
2021/11/11 20:27:23;;;;;;;27.50;16.60;;;-0.10;96.30;;;;;;4972493;28;20437;-73
2021/11/11 20:28:16;;;;;;;28.80;17.00;;;0.00;96.30;;;;;;4973402;28;20480;-73
2021/11/11 20:46:49;;;;;;;26.03;16.53;;;-0.40;96.30;;;;;;4951148;29;20771;-73
2021/11/11 20:49:46;;;;;;;26.87;16.27;;;-0.50;96.30;;;;;;4953226;28;20458;-73
2021/11/11 21:00:20;;;;;;;26.23;15.53;;;-0.50;96.30;;;;;;4972496;28;20424;-72
2021/11/11 21:05:43;;;;;;;23.67;14.47;;;-0.50;96.30;;;;;;4953581;28;20445;-73
2021/11/11 21:11:07;;;;;;;30.60;16.23;;;-0.60;96.30;;;;;;4953324;28;20482;-74
2021/11/11 21:13:42;;;;;;;32.43;15.03;;;-0.70;96.30;;;;;;4953431;28;20395;-75
2021/11/11 21:19:13;;;;;;;193.50;14.20;;;-0.70;96.30;;;;;;4944645;28;20872;-75
2021/11/11 21:22:07;;;;;;;164.27;16.10;;;-0.60;96.30;;;;;;4967520;28;20434;-75
2021/11/11 21:24:34;;;;;;;151.30;16.60;;;-0.60;96.30;;;;;;4953350;28;20429;-75
2021/11/11 21:27:01;;;;;;;106.10;15.17;;;-0.60;96.30;;;;;;4953245;28;20835;-75
2021/11/11 21:29:31;;;;;;;27.60;13.00;;;-0.60;96.30;;;;;;4968297;28;20414;-74